Abrams, Wisconsin
Current Conditions -  °F | °C
As of 9:55 AM on Thursday 23 Oct 2014 (Local Time) from KOCQ Reporting Station
Clear Clear  
Wind Chill: 46°   Ceiling: Unl
Heat Index: 50°   Visibility: 10mi
Dew Point: 40°   Wind: 8mph
Humidity: 69%   Direction: 170°S
Pressure: 30.14"   Gusts: NA
Location:  44.78°N, 88.06°W
Report Text: KOCQ 231455Z AUTO 17007KT 10SM CLR 10/04 A3014 RMK AO1 T00980044
Loading
Personal Weather Stations






























Interactive Weather Map
Tropical Storm Tracking
New forecast layout! Learn more

10-Day Weather Forecast

Advertisements
Track Severe Weather on mobile